Hovedside
METAR-TAF:

METAR-TAF

Lufthavner :

Vitebsk, Hviterussland

breddegrad: 55-10N, lengdegrad: 030-13E, høyde over havet: 176 m

Gjeldene værobservasjon

Denne rapporten ble laget for 4 timer og 22 minutter siden, klokken 16:00 UTC
Vind 10 kt fra Sør-sørøst med vindkast opp mot 16 kt
Temperatur 9°C
Luftfuktighet 71%
Trykk 1019 hPa
Sikt: 8000 m

METAR: UMII 141600Z 16005G08MPS 8000 NSC 09/04 Q1019 R23/190062 TEMPO SCT005

Tid: 23:22 (20:22 UTC)

Varsel

Denne rapporten ble laget for 6 timer og 9 minutter siden, klokken 14:13 UTC
Varsel gyldig fra 14. klokken 15 UTC til 14. klokken 24 UTC
Vind 8 kt fra Sør-sørøst med vindkast opp mot 17 kt
Sikt: 6000 m
Spredte skyer i en høyde av 1200 ft
Midlertidig
fra 14. klokken 15 UTC til 14. klokken 24 UTC
Sikt: 2000 m
Brutte skyer i en høyde av 500 ft
dis

TAF: UMII 141413Z 1415/1424 15004G09MPS 6000 SCT012 TEMPO 1415/1424 2000 BR BKN005

Værobservasjoner og værvarsel for over 4000 flyplasser (METAR- og TAF-rapporter).

Tilgjengelige stasjoner er representert av de røde og gule prikkene på kartet.

Hold musepekeren over prikken for å se navnet på stasjonen.

Klikk så for å se værobservasjoner og -varsler.

For å forandre kartet kan du klikke på den grønne knappen med svart kryss for å zoome inn, på den grønne knappen med strek for å zoome ut, eller på de grønne pilene for å se tilstøtende kart.


METAR-TAF: